createdAt,value
2019-05-06T00:01:06.282Z,5.80
2019-05-06T00:03:34.675Z,5.90
2019-05-06T00:06:06.218Z,5.90
2019-05-06T00:08:34.748Z,6.00
2019-05-06T00:11:07.870Z,5.90
2019-05-06T00:13:37.061Z,6.00
2019-05-06T00:16:14.366Z,5.90
2019-05-06T00:18:44.846Z,6.00
2019-05-06T00:21:15.079Z,6.00
2019-05-06T00:23:45.207Z,5.90
2019-05-06T00:26:24.398Z,5.90
2019-05-06T00:28:57.427Z,5.90
2019-05-06T00:31:30.127Z,5.90
2019-05-06T00:33:58.675Z,5.80
2019-05-06T00:36:27.336Z,5.80
2019-05-06T00:39:00.488Z,5.90
2019-05-06T00:41:36.344Z,5.90
2019-05-06T00:44:05.565Z,6.00
2019-05-06T00:46:34.449Z,6.00
2019-05-06T00:49:05.953Z,6.00
2019-05-06T00:51:34.351Z,5.90
2019-05-06T00:54:14.289Z,5.90
2019-05-06T00:56:44.761Z,5.80
2019-05-06T00:59:16.180Z,5.70
2019-05-06T01:01:51.199Z,5.70
2019-05-06T01:04:19.578Z,5.70
2019-05-06T01:06:50.750Z,5.70
2019-05-06T01:09:25.887Z,5.70
2019-05-06T01:11:56.060Z,5.60
2019-05-06T01:14:43.582Z,5.70
2019-05-06T01:17:13.435Z,5.70
2019-05-06T01:19:46.449Z,5.70
2019-05-06T01:22:17.762Z,5.60
2019-05-06T01:24:50.705Z,5.60
2019-05-06T01:27:20.868Z,5.70
2019-05-06T01:29:50.889Z,5.70
2019-05-06T01:32:23.644Z,5.60
2019-05-06T01:34:53.740Z,5.60
2019-05-06T01:37:27.587Z,5.50
2019-05-06T01:40:05.498Z,5.50
2019-05-06T01:42:38.454Z,5.50
2019-05-06T01:45:08.050Z,5.40
2019-05-06T01:47:36.446Z,5.40
2019-05-06T01:50:09.639Z,5.40
2019-05-06T01:52:48.639Z,5.40
2019-05-06T01:55:18.089Z,5.40
2019-05-06T01:57:46.723Z,5.40
2019-05-06T02:00:16.153Z,5.40
2019-05-06T02:02:44.815Z,5.40
2019-05-06T02:05:13.864Z,5.40
2019-05-06T02:07:44.093Z,5.40
2019-05-06T02:10:15.530Z,5.30
2019-05-06T02:12:45.574Z,5.20
2019-05-06T02:15:17.555Z,5.20
2019-05-06T02:17:48.638Z,5.10
2019-05-06T02:20:18.486Z,5.00
2019-05-06T02:22:48.534Z,5.00
2019-05-06T02:25:21.497Z,4.90
2019-05-06T02:27:51.541Z,4.80
2019-05-06T02:30:30.339Z,4.80
2019-05-06T02:33:05.928Z,4.70
2019-05-06T02:35:45.589Z,4.70
2019-05-06T02:38:39.731Z,4.60
2019-05-06T02:40:55.495Z,4.60
2019-05-06T02:43:23.953Z,4.60
2019-05-06T02:45:55.542Z,4.50
2019-05-06T02:48:28.115Z,4.50
2019-05-06T02:50:58.135Z,4.60
2019-05-06T02:53:29.581Z,4.50
2019-05-06T02:56:04.185Z,4.50
2019-05-06T02:58:33.111Z,4.40
2019-05-06T03:01:04.064Z,4.30
2019-05-06T03:03:35.255Z,4.10
2019-05-06T03:06:04.316Z,3.90
2019-05-06T03:08:34.981Z,3.70
2019-05-06T03:11:16.560Z,3.60
2019-05-06T03:13:45.078Z,3.50
2019-05-06T03:16:14.338Z,3.30
2019-05-06T03:18:43.615Z,3.20
2019-05-06T03:21:27.131Z,3.10
2019-05-06T03:23:59.775Z,3.00
2019-05-06T03:26:33.185Z,2.90
2019-05-06T03:29:13.536Z,2.80
2019-05-06T03:31:46.541Z,2.70
2019-05-06T03:34:46.815Z,2.70
2019-05-06T03:36:48.962Z,2.70
2019-05-06T03:39:17.205Z,2.70
2019-05-06T03:41:45.688Z,2.70
2019-05-06T03:44:17.041Z,2.60
2019-05-06T03:47:05.741Z,2.60
2019-05-06T03:49:38.173Z,2.70
2019-05-06T03:52:15.725Z,2.80
2019-05-06T03:54:45.813Z,2.80
2019-05-06T03:57:17.305Z,2.80
2019-05-06T03:59:52.991Z,2.90
2019-05-06T04:02:24.017Z,3.00
2019-05-06T04:04:56.780Z,3.00
2019-05-06T04:07:29.608Z,3.00
2019-05-06T04:09:58.003Z,3.10
2019-05-06T04:12:33.003Z,3.10
2019-05-06T04:15:04.598Z,3.00
2019-05-06T04:17:53.477Z,2.80
2019-05-06T04:20:34.187Z,2.60
2019-05-06T04:23:06.394Z,2.50
2019-05-06T04:25:43.808Z,2.40
2019-05-06T04:28:17.761Z,2.50
2019-05-06T04:30:47.410Z,2.60
2019-05-06T04:33:17.624Z,2.70
2019-05-06T04:35:48.457Z,2.80
2019-05-06T04:38:23.207Z,2.80
2019-05-06T04:40:53.516Z,2.90
2019-05-06T04:43:26.912Z,3.00
2019-05-06T04:45:57.383Z,3.10
2019-05-06T04:48:27.429Z,3.10
2019-05-06T04:50:55.846Z,3.30
2019-05-06T04:53:27.039Z,3.30
2019-05-06T04:55:59.322Z,3.50
2019-05-06T04:58:33.260Z,3.60
2019-05-06T05:01:12.126Z,3.70
2019-05-06T05:03:39.283Z,3.90
2019-05-06T05:06:13.429Z,4.10
2019-05-06T05:08:42.743Z,4.30
2019-05-06T05:11:14.201Z,4.50
2019-05-06T05:13:53.137Z,4.70
2019-05-06T05:16:38.643Z,5.30
2019-05-06T05:19:12.154Z,6.40
2019-05-06T05:21:42.865Z,7.60
2019-05-06T05:24:14.563Z,8.70
2019-05-06T05:26:46.947Z,9.80
2019-05-06T05:29:16.946Z,10.60
2019-05-06T05:31:53.004Z,11.40
2019-05-06T05:34:37.977Z,12.10
2019-05-06T05:37:00.393Z,13.00
2019-05-06T05:39:29.593Z,13.00
2019-05-06T05:42:02.963Z,13.40
2019-05-06T05:44:35.061Z,13.90
2019-05-06T05:47:12.379Z,14.30
2019-05-06T05:49:46.196Z,14.40
2019-05-06T05:52:15.491Z,14.30
2019-05-06T05:54:44.659Z,14.40
2019-05-06T05:57:13.323Z,14.20
2019-05-06T05:59:52.873Z,14.30
2019-05-06T06:02:19.882Z,13.70
2019-05-06T06:04:56.989Z,13.70
2019-05-06T06:07:24.426Z,13.60
2019-05-06T06:10:14.069Z,14.40
2019-05-06T06:12:43.824Z,15.20
2019-05-06T06:15:26.100Z,15.80
2019-05-06T06:18:04.418Z,15.80
2019-05-06T06:20:34.531Z,15.40
2019-05-06T06:23:07.732Z,15.30
2019-05-06T06:25:37.174Z,14.80
2019-05-06T06:28:05.635Z,14.70
2019-05-06T06:30:36.102Z,14.80
2019-05-06T06:33:08.340Z,15.10
2019-05-06T06:35:47.263Z,14.80
2019-05-06T06:38:20.224Z,15.10
2019-05-06T06:40:48.914Z,15.40
2019-05-06T06:43:22.987Z,15.80
2019-05-06T06:45:53.612Z,16.00
2019-05-06T06:48:23.574Z,16.20
2019-05-06T06:50:53.221Z,16.30
2019-05-06T06:53:21.888Z,16.50
2019-05-06T06:55:52.442Z,16.00
2019-05-06T06:58:33.368Z,15.30
2019-05-06T07:01:15.112Z,15.10
2019-05-06T07:03:46.311Z,15.20
2019-05-06T07:06:22.410Z,15.60
2019-05-06T07:08:53.275Z,15.90
2019-05-06T07:11:22.532Z,16.50
2019-05-06T07:13:57.356Z,17.00
2019-05-06T07:16:27.397Z,17.20
2019-05-06T07:18:55.824Z,17.40
2019-05-06T07:21:29.356Z,17.10
2019-05-06T07:24:02.179Z,16.80
2019-05-06T07:26:37.808Z,17.40
2019-05-06T07:29:15.340Z,17.80
2019-05-06T07:31:42.638Z,17.70
2019-05-06T07:34:15.735Z,17.10
2019-05-06T07:36:44.124Z,16.80
2019-05-06T07:39:17.161Z,16.40
2019-05-06T07:41:53.627Z,16.30
2019-05-06T07:44:42.329Z,15.90
2019-05-06T07:47:18.444Z,15.80
2019-05-06T07:49:47.924Z,15.80
2019-05-06T07:52:17.310Z,15.60
2019-05-06T07:54:46.466Z,15.40
2019-05-06T07:57:15.152Z,15.00
2019-05-06T07:59:49.470Z,14.70
2019-05-06T08:02:17.934Z,15.20
2019-05-06T08:04:46.334Z,15.60
2019-05-06T08:07:17.440Z,15.80
2019-05-06T08:09:48.837Z,15.80
2019-05-06T08:12:17.499Z,16.00
2019-05-06T08:14:45.981Z,16.90
2019-05-06T08:17:22.233Z,17.30
2019-05-06T08:19:52.738Z,17.70
2019-05-06T08:22:38.488Z,17.10
2019-05-06T08:25:07.236Z,16.90
2019-05-06T08:27:35.637Z,16.90
2019-05-06T08:30:08.653Z,16.30
2019-05-06T08:32:37.032Z,16.60
2019-05-06T08:35:13.391Z,15.40
2019-05-06T08:37:47.933Z,14.30
2019-05-06T08:40:16.109Z,14.90
2019-05-06T08:42:44.575Z,16.20
2019-05-06T08:45:13.385Z,16.90
2019-05-06T08:47:44.488Z,16.60
2019-05-06T08:50:34.006Z,15.60
2019-05-06T08:53:07.332Z,15.00
2019-05-06T08:55:42.087Z,14.30
2019-05-06T08:58:10.756Z,13.60
2019-05-06T09:01:02.838Z,12.50
2019-05-06T09:03:29.022Z,11.90
2019-05-06T09:05:57.412Z,11.30
2019-05-06T09:08:27.840Z,11.10
2019-05-06T09:10:56.423Z,11.00
2019-05-06T09:13:36.771Z,11.00
2019-05-06T09:16:05.491Z,11.00
2019-05-06T09:18:35.463Z,10.90
2019-05-06T09:21:03.875Z,11.00
2019-05-06T09:23:33.903Z,12.20
2019-05-06T09:26:03.980Z,14.10
2019-05-06T09:28:53.181Z,16.50
2019-05-06T09:31:29.385Z,17.80
2019-05-06T09:34:04.284Z,18.20
2019-05-06T09:36:44.189Z,17.50
2019-05-06T09:39:08.508Z,17.00
2019-05-06T09:41:39.697Z,17.00
2019-05-06T09:44:12.308Z,17.50
2019-05-06T09:46:42.098Z,17.60
2019-05-06T09:49:17.755Z,17.20
2019-05-06T09:51:46.157Z,16.10
2019-05-06T09:54:18.766Z,15.00
2019-05-06T09:57:02.275Z,15.00
2019-05-06T09:59:32.169Z,14.80
2019-05-06T10:02:12.877Z,15.30
2019-05-06T10:04:35.885Z,17.10
2019-05-06T10:07:11.923Z,18.00
2019-05-06T10:09:43.485Z,18.00
2019-05-06T10:12:14.174Z,16.90
2019-05-06T10:14:45.676Z,16.10
2019-05-06T10:17:14.055Z,15.10
2019-05-06T10:19:43.038Z,14.30
2019-05-06T10:22:13.093Z,13.60
2019-05-06T10:24:43.471Z,13.20
2019-05-06T10:27:15.443Z,12.70
2019-05-06T10:29:45.742Z,12.30
2019-05-06T10:32:39.196Z,11.90
2019-05-06T10:35:08.933Z,11.70
2019-05-06T10:37:56.888Z,11.70
2019-05-06T10:40:59.758Z,12.00
2019-05-06T10:43:34.878Z,12.40
2019-05-06T10:46:04.077Z,13.00
2019-05-06T10:48:33.155Z,14.30
2019-05-06T10:51:22.962Z,14.60
2019-05-06T10:53:51.673Z,14.60
2019-05-06T10:56:27.637Z,14.30
2019-05-06T10:58:57.758Z,14.20
2019-05-06T11:01:27.900Z,14.30
2019-05-06T11:03:58.276Z,14.20
2019-05-06T11:06:26.811Z,14.40
2019-05-06T11:08:55.597Z,14.40
2019-05-06T11:11:37.510Z,14.90
2019-05-06T11:13:57.244Z,15.50
2019-05-06T11:16:25.867Z,16.60
2019-05-06T11:18:54.707Z,18.00
2019-05-06T11:21:23.143Z,19.00
2019-05-06T11:23:52.681Z,19.40
2019-05-06T11:26:23.694Z,19.20
2019-05-06T11:29:12.467Z,18.30
2019-05-06T11:31:48.386Z,17.30
2019-05-06T11:34:27.584Z,16.40
2019-05-06T11:37:15.047Z,15.80
2019-05-06T11:39:48.074Z,15.80
2019-05-06T11:42:27.622Z,15.50
2019-05-06T11:44:47.618Z,15.20
2019-05-06T11:47:19.049Z,15.50
2019-05-06T11:49:49.091Z,16.30
2019-05-06T11:52:22.636Z,16.80
2019-05-06T11:54:53.767Z,16.30
2019-05-06T11:57:23.223Z,16.60
2019-05-06T11:59:53.057Z,17.80
2019-05-06T12:02:26.951Z,18.70
2019-05-06T12:04:55.426Z,18.10
2019-05-06T12:07:24.823Z,18.00
2019-05-06T12:09:56.600Z,17.80
2019-05-06T12:12:28.071Z,17.00
2019-05-06T12:14:59.254Z,16.40
2019-05-06T12:17:30.770Z,16.30
2019-05-06T12:20:05.305Z,16.30
2019-05-06T12:22:36.717Z,16.20
2019-05-06T12:25:15.259Z,16.60
2019-05-06T12:27:47.064Z,16.80
2019-05-06T12:30:19.604Z,17.50
2019-05-06T12:33:04.955Z,18.00
2019-05-06T12:35:35.069Z,18.30
2019-05-06T12:38:23.885Z,18.50
2019-05-06T12:40:38.634Z,18.10
2019-05-06T12:43:24.979Z,18.20
2019-05-06T12:45:58.596Z,17.80
2019-05-06T12:48:28.938Z,17.60
2019-05-06T12:51:03.087Z,17.30
2019-05-06T12:53:38.223Z,17.30
2019-05-06T12:56:06.665Z,17.10
2019-05-06T12:58:44.261Z,17.50
2019-05-06T13:01:14.888Z,17.60
2019-05-06T13:03:43.655Z,18.00
2019-05-06T13:06:13.684Z,17.80
2019-05-06T13:08:56.637Z,17.30
2019-05-06T13:11:13.157Z,16.90
2019-05-06T13:13:56.744Z,16.50
2019-05-06T13:16:18.421Z,16.00
2019-05-06T13:18:47.863Z,16.30
2019-05-06T13:21:19.141Z,16.30
2019-05-06T13:23:49.451Z,16.20
2019-05-06T13:26:22.312Z,16.40
2019-05-06T13:28:53.213Z,16.70
2019-05-06T13:31:25.547Z,17.10
2019-05-06T13:33:54.712Z,17.00
2019-05-06T13:36:24.615Z,16.80
2019-05-06T13:39:09.454Z,16.60
2019-05-06T13:41:26.136Z,16.70
2019-05-06T13:43:59.012Z,16.60
2019-05-06T13:46:29.125Z,16.30
2019-05-06T13:49:02.929Z,16.30
2019-05-06T13:51:49.612Z,16.10
2019-05-06T13:54:18.264Z,15.80
2019-05-06T13:56:49.427Z,15.50
2019-05-06T13:59:19.540Z,15.50
2019-05-06T14:01:49.578Z,15.60
2019-05-06T14:04:17.982Z,15.70
2019-05-06T14:06:52.820Z,15.70
2019-05-06T14:09:31.399Z,15.40
2019-05-06T14:12:02.654Z,15.10
2019-05-06T14:14:33.638Z,15.10
2019-05-06T14:17:12.775Z,15.10
2019-05-06T14:19:42.920Z,15.00
2019-05-06T14:22:12.528Z,15.10
2019-05-06T14:24:43.210Z,15.20
2019-05-06T14:27:14.110Z,15.30
2019-05-06T14:29:44.140Z,15.20
2019-05-06T14:32:14.772Z,15.30
2019-05-06T14:34:44.000Z,15.30
2019-05-06T14:37:12.649Z,15.20
2019-05-06T14:39:53.678Z,15.00
2019-05-06T14:42:13.473Z,14.80
2019-05-06T14:44:47.542Z,14.40
2019-05-06T14:47:23.450Z,14.40
2019-05-06T14:49:57.818Z,14.30
2019-05-06T14:52:26.462Z,14.30
2019-05-06T14:54:59.529Z,14.40
2019-05-06T14:57:28.215Z,14.30
2019-05-06T15:00:04.150Z,14.30
2019-05-06T15:02:34.906Z,14.50
2019-05-06T15:05:04.926Z,14.60
2019-05-06T15:07:36.166Z,14.90
2019-05-06T15:10:19.052Z,15.00
2019-05-06T15:12:36.360Z,15.60
2019-05-06T15:15:12.134Z,16.10
2019-05-06T15:17:42.461Z,16.10
2019-05-06T15:20:13.595Z,15.70
2019-05-06T15:22:42.367Z,15.20
2019-05-06T15:25:15.087Z,14.80
2019-05-06T15:27:45.037Z,14.50
2019-05-06T15:30:19.320Z,14.50
2019-05-06T15:32:48.275Z,14.20
2019-05-06T15:35:18.606Z,14.30
2019-05-06T15:37:49.400Z,14.20
2019-05-06T15:40:31.140Z,14.50
2019-05-06T15:42:49.782Z,14.70
2019-05-06T15:45:21.761Z,14.80
2019-05-06T15:47:52.138Z,14.50
2019-05-06T15:50:23.050Z,14.40
2019-05-06T15:52:53.628Z,14.20
2019-05-06T15:55:27.462Z,14.00
2019-05-06T15:57:55.955Z,13.80
2019-05-06T16:00:24.537Z,13.70
2019-05-06T16:02:54.619Z,13.60
2019-05-06T16:05:26.558Z,13.40
2019-05-06T16:07:53.333Z,13.10
2019-05-06T16:10:25.324Z,13.00
2019-05-06T16:12:53.805Z,12.90
2019-05-06T16:15:24.523Z,12.70
2019-05-06T16:17:53.302Z,12.60
2019-05-06T16:20:24.935Z,12.40
2019-05-06T16:22:55.110Z,12.20
2019-05-06T16:25:28.298Z,12.10
2019-05-06T16:27:58.654Z,11.90
2019-05-06T16:30:30.096Z,11.70
2019-05-06T16:33:04.092Z,11.80
2019-05-06T16:35:33.624Z,11.90
2019-05-06T16:38:02.398Z,12.00
2019-05-06T16:40:33.495Z,12.10
2019-05-06T16:43:02.092Z,12.10
2019-05-06T16:45:31.174Z,12.10
2019-05-06T16:47:59.596Z,12.20
2019-05-06T16:50:29.771Z,12.20
2019-05-06T16:52:59.156Z,12.40
2019-05-06T16:55:29.287Z,12.50
2019-05-06T16:58:02.552Z,12.60
2019-05-06T17:00:36.388Z,12.70
2019-05-06T17:03:09.067Z,12.60
2019-05-06T17:05:39.397Z,12.60
2019-05-06T17:08:12.303Z,12.60
2019-05-06T17:10:43.123Z,12.50
2019-05-06T17:13:12.629Z,12.50
2019-05-06T17:15:41.308Z,12.30
2019-05-06T17:18:12.760Z,12.30
2019-05-06T17:20:47.161Z,12.20
2019-05-06T17:23:18.580Z,12.00
2019-05-06T17:25:47.005Z,11.90
2019-05-06T17:28:36.148Z,11.80
2019-05-06T17:31:09.268Z,11.70
2019-05-06T17:33:47.752Z,11.60
2019-05-06T17:36:17.829Z,11.40
2019-05-06T17:38:47.931Z,11.40
2019-05-06T17:41:16.413Z,11.20
2019-05-06T17:43:44.997Z,11.10
2019-05-06T17:46:16.061Z,11.00
2019-05-06T17:48:46.214Z,10.90
2019-05-06T17:51:16.245Z,10.70
2019-05-06T17:53:54.928Z,10.70
2019-05-06T17:56:23.389Z,10.60
2019-05-06T17:58:53.212Z,10.50
2019-05-06T18:01:26.332Z,10.50
2019-05-06T18:03:56.455Z,10.50
2019-05-06T18:06:33.541Z,10.40
2019-05-06T18:09:03.411Z,10.40
2019-05-06T18:11:33.217Z,10.30
2019-05-06T18:14:04.141Z,10.20
2019-05-06T18:16:33.711Z,10.10
2019-05-06T18:19:03.258Z,10.00
2019-05-06T18:21:40.302Z,9.90
2019-05-06T18:24:09.692Z,9.80
2019-05-06T18:26:38.275Z,9.60
2019-05-06T18:29:06.676Z,9.30
2019-05-06T18:31:38.017Z,9.20
2019-05-06T18:34:06.660Z,9.00
2019-05-06T18:36:36.020Z,8.90
2019-05-06T18:39:08.862Z,8.80
2019-05-06T18:41:37.277Z,8.60
2019-05-06T18:44:05.927Z,8.50
2019-05-06T18:46:36.067Z,8.30
2019-05-06T18:49:05.163Z,8.20
2019-05-06T18:51:33.652Z,8.00
2019-05-06T18:54:03.099Z,7.90
2019-05-06T18:56:33.057Z,7.70
2019-05-06T18:59:02.849Z,7.50
2019-05-06T19:01:35.261Z,7.40
2019-05-06T19:04:08.003Z,7.30
2019-05-06T19:06:39.124Z,7.10
2019-05-06T19:09:15.310Z,6.80
2019-05-06T19:11:43.709Z,6.50
2019-05-06T19:14:13.047Z,6.30
2019-05-06T19:16:49.725Z,6.10
2019-05-06T19:19:24.696Z,5.90
2019-05-06T19:21:54.816Z,5.60
2019-05-06T19:24:25.701Z,5.50
2019-05-06T19:26:57.240Z,5.30
2019-05-06T19:29:25.684Z,5.20
2019-05-06T19:31:54.348Z,5.10
2019-05-06T19:34:28.165Z,5.00
2019-05-06T19:36:56.619Z,5.10
2019-05-06T19:39:25.980Z,5.00
2019-05-06T19:41:54.412Z,5.00
2019-05-06T19:44:25.440Z,4.90
2019-05-06T19:46:54.060Z,4.90
2019-05-06T19:49:27.874Z,4.90
2019-05-06T19:51:56.525Z,4.80
2019-05-06T19:54:24.922Z,4.70
2019-05-06T19:56:53.329Z,4.70
2019-05-06T19:59:24.245Z,4.70
2019-05-06T20:01:52.694Z,4.60
2019-05-06T20:04:24.058Z,4.60
2019-05-06T20:06:55.332Z,4.60
2019-05-06T20:09:25.416Z,4.60
2019-05-06T20:12:02.839Z,4.60
2019-05-06T20:14:31.734Z,4.60
2019-05-06T20:17:00.163Z,4.60
2019-05-06T20:19:31.283Z,4.50
2019-05-06T20:21:58.711Z,4.40
2019-05-06T20:24:27.362Z,4.40
2019-05-06T20:26:55.771Z,4.40
2019-05-06T20:29:24.158Z,4.40
2019-05-06T20:31:53.501Z,4.40
2019-05-06T20:34:22.683Z,4.40
2019-05-06T20:36:53.897Z,4.50
2019-05-06T20:39:23.091Z,4.50
2019-05-06T20:41:52.167Z,4.70
2019-05-06T20:44:22.925Z,4.80
2019-05-06T20:46:52.851Z,4.90
2019-05-06T20:49:20.910Z,5.00
2019-05-06T20:51:49.377Z,5.00
2019-05-06T20:54:23.621Z,5.10
2019-05-06T20:56:52.934Z,5.10
2019-05-06T20:59:23.035Z,5.10
2019-05-06T21:01:55.389Z,5.20
2019-05-06T21:04:25.627Z,5.20
2019-05-06T21:06:57.314Z,5.20
2019-05-06T21:09:25.681Z,5.30
2019-05-06T21:11:54.461Z,5.30
2019-05-06T21:14:22.891Z,5.30
2019-05-06T21:16:52.156Z,5.40
2019-05-06T21:19:22.406Z,5.40
2019-05-06T21:21:52.916Z,5.50
2019-05-06T21:24:22.597Z,5.50
2019-05-06T21:26:54.566Z,5.50
2019-05-06T21:29:25.965Z,5.50
2019-05-06T21:31:54.392Z,5.60
2019-05-06T21:34:23.030Z,5.60
2019-05-06T21:36:53.332Z,5.60
2019-05-06T21:39:23.074Z,5.70
2019-05-06T21:41:52.149Z,5.70
2019-05-06T21:44:25.120Z,5.70
2019-05-06T21:46:54.095Z,5.70
2019-05-06T21:49:29.201Z,5.80
2019-05-06T21:51:57.626Z,5.80
2019-05-06T21:54:29.046Z,5.90
2019-05-06T21:56:57.752Z,5.80
2019-05-06T21:59:26.492Z,5.80
2019-05-06T22:01:56.517Z,5.90
2019-05-06T22:04:25.042Z,5.80
2019-05-06T22:06:53.538Z,5.80
2019-05-06T22:09:23.581Z,5.80
2019-05-06T22:11:53.640Z,5.80
2019-05-06T22:14:22.980Z,5.90
2019-05-06T22:16:54.786Z,5.90
2019-05-06T22:19:23.211Z,6.00
2019-05-06T22:22:03.432Z,6.00
2019-05-06T22:24:55.004Z,6.00
2019-05-06T22:27:21.847Z,6.20
2019-05-06T22:29:52.049Z,6.20
2019-05-06T22:32:19.860Z,6.30
2019-05-06T22:34:48.522Z,6.20
2019-05-06T22:37:17.186Z,6.20
2019-05-06T22:39:47.496Z,6.10
2019-05-06T22:42:16.276Z,6.00
2019-05-06T22:44:46.347Z,5.90
2019-05-06T22:47:17.217Z,5.90
2019-05-06T22:49:48.439Z,5.80
2019-05-06T22:52:22.819Z,5.80
2019-05-06T22:54:54.146Z,5.90
2019-05-06T22:57:23.556Z,5.90
2019-05-06T22:59:58.205Z,5.90
2019-05-06T23:02:33.968Z,6.00
2019-05-06T23:05:06.965Z,6.00
2019-05-06T23:07:38.349Z,6.20
2019-05-06T23:10:08.474Z,6.20
2019-05-06T23:12:45.616Z,6.20
2019-05-06T23:15:15.177Z,6.20
2019-05-06T23:17:43.562Z,6.20
2019-05-06T23:20:14.040Z,6.10
2019-05-06T23:22:43.224Z,6.10
2019-05-06T23:25:14.828Z,6.00
2019-05-06T23:27:44.118Z,6.00
2019-05-06T23:30:13.649Z,5.90
2019-05-06T23:32:44.741Z,5.90
2019-05-06T23:35:13.379Z,5.80
2019-05-06T23:38:18.379Z,5.70
2019-05-06T23:41:23.301Z,5.60
2019-05-06T23:44:41.529Z,5.60
